sensor_id;sensor_type;location;lat;lon;timestamp;pressure;altitude;pressure_sealevel;temperature;humidity
64698;BME280;51124;53.394;-6.294;2023-04-06T00:00:03;100652.59;;;20.81;11.86
64698;BME280;51124;53.394;-6.294;2023-04-06T00:02:31;100646.15;;;19.94;12.02
64698;BME280;51124;53.394;-6.294;2023-04-06T00:04:58;100644.69;;;20.05;11.94
64698;BME280;51124;53.394;-6.294;2023-04-06T00:07:26;100640.03;;;20.15;12.07
64698;BME280;51124;53.394;-6.294;2023-04-06T00:09:54;100640.60;;;20.24;12.17
64698;BME280;51124;53.394;-6.294;2023-04-06T00:12:22;100645.44;;;19.89;12.21
64698;BME280;51124;53.394;-6.294;2023-04-06T00:14:50;100642.92;;;19.29;12.36
64698;BME280;51124;53.394;-6.294;2023-04-06T00:17:17;100639.52;;;19.66;12.40
64698;BME280;51124;53.394;-6.294;2023-04-06T00:19:45;100637.19;;;19.19;12.34
64698;BME280;51124;53.394;-6.294;2023-04-06T00:22:13;100636.48;;;20.55;12.18
64698;BME280;51124;53.394;-6.294;2023-04-06T00:24:41;100633.16;;;19.24;12.32
64698;BME280;51124;53.394;-6.294;2023-04-06T00:27:08;100632.57;;;16.64;12.25
64698;BME280;51124;53.394;-6.294;2023-04-06T00:29:36;100630.90;;;16.39;11.78
64698;BME280;51124;53.394;-6.294;2023-04-06T00:32:03;100628.05;;;16.99;11.06
64698;BME280;51124;53.394;-6.294;2023-04-06T00:34:30;100625.89;;;17.13;10.86
64698;BME280;51124;53.394;-6.294;2023-04-06T00:36:58;100618.08;;;17.30;10.68
64698;BME280;51124;53.394;-6.294;2023-04-06T00:39:25;100610.45;;;18.12;10.33
64698;BME280;51124;53.394;-6.294;2023-04-06T00:41:53;100609.20;;;17.33;10.32
64698;BME280;51124;53.394;-6.294;2023-04-06T00:44:20;100608.04;;;16.89;10.19
64698;BME280;51124;53.394;-6.294;2023-04-06T00:46:48;100612.46;;;17.02;10.25
64698;BME280;51124;53.394;-6.294;2023-04-06T00:49:16;100614.32;;;16.61;10.08
64698;BME280;51124;53.394;-6.294;2023-04-06T00:51:43;100621.07;;;17.40;9.93
64698;BME280;51124;53.394;-6.294;2023-04-06T00:54:11;100623.18;;;17.68;9.81
64698;BME280;51124;53.394;-6.294;2023-04-06T00:56:38;100623.64;;;17.68;9.74
64698;BME280;51124;53.394;-6.294;2023-04-06T00:59:05;100624.53;;;17.42;9.90
64698;BME280;51124;53.394;-6.294;2023-04-06T01:01:33;100622.05;;;16.73;9.94
64698;BME280;51124;53.394;-6.294;2023-04-06T01:04:00;100618.12;;;16.69;9.66
64698;BME280;51124;53.394;-6.294;2023-04-06T01:06:28;100616.74;;;16.50;9.72
64698;BME280;51124;53.394;-6.294;2023-04-06T01:08:55;100612.47;;;17.91;9.57
64698;BME280;51124;53.394;-6.294;2023-04-06T01:11:23;100615.87;;;17.17;9.60
64698;BME280;51124;53.394;-6.294;2023-04-06T01:13:50;100620.48;;;17.43;9.64
64698;BME280;51124;53.394;-6.294;2023-04-06T01:16:18;100619.60;;;17.84;9.47
64698;BME280;51124;53.394;-6.294;2023-04-06T01:18:45;100630.65;;;16.45;9.73
64698;BME280;51124;53.394;-6.294;2023-04-06T01:21:13;100630.45;;;16.45;9.64
64698;BME280;51124;53.394;-6.294;2023-04-06T01:23:41;100624.55;;;17.16;9.43
64698;BME280;51124;53.394;-6.294;2023-04-06T01:26:09;100625.47;;;16.64;9.63
64698;BME280;51124;53.394;-6.294;2023-04-06T01:28:36;100619.74;;;17.06;9.48
64698;BME280;51124;53.394;-6.294;2023-04-06T01:31:04;100616.16;;;17.86;9.37
64698;BME280;51124;53.394;-6.294;2023-04-06T01:33:31;100617.57;;;16.11;9.69
64698;BME280;51124;53.394;-6.294;2023-04-06T01:35:58;100613.35;;;16.87;9.47
64698;BME280;51124;53.394;-6.294;2023-04-06T01:38:26;100610.49;;;17.39;9.27
64698;BME280;51124;53.394;-6.294;2023-04-06T01:40:53;100606.97;;;17.73;9.33
64698;BME280;51124;53.394;-6.294;2023-04-06T01:43:21;100606.16;;;16.71;9.65
64698;BME280;51124;53.394;-6.294;2023-04-06T01:45:48;100603.92;;;17.35;9.44
64698;BME280;51124;53.394;-6.294;2023-04-06T01:48:16;100606.09;;;16.68;9.50
64698;BME280;51124;53.394;-6.294;2023-04-06T01:50:43;100606.91;;;18.03;9.57
64698;BME280;51124;53.394;-6.294;2023-04-06T01:53:10;100601.85;;;17.79;9.21
64698;BME280;51124;53.394;-6.294;2023-04-06T01:55:38;100605.01;;;16.77;9.53
64698;BME280;51124;53.394;-6.294;2023-04-06T01:58:05;100605.04;;;16.83;9.57
64698;BME280;51124;53.394;-6.294;2023-04-06T02:00:33;100605.86;;;16.83;9.81
64698;BME280;51124;53.394;-6.294;2023-04-06T02:03:00;100600.40;;;16.61;9.53
64698;BME280;51124;53.394;-6.294;2023-04-06T02:05:29;100594.87;;;18.05;9.36
64698;BME280;51124;53.394;-6.294;2023-04-06T02:07:56;100598.77;;;15.91;9.86
64698;BME280;51124;53.394;-6.294;2023-04-06T02:10:24;100600.91;;;17.35;9.39
64698;BME280;51124;53.394;-6.294;2023-04-06T02:12:51;100600.71;;;17.17;9.56
64698;BME280;51124;53.394;-6.294;2023-04-06T02:15:18;100599.49;;;17.28;9.58
64698;BME280;51124;53.394;-6.294;2023-04-06T02:17:46;100598.29;;;16.37;9.60
64698;BME280;51124;53.394;-6.294;2023-04-06T02:20:13;100599.23;;;16.54;9.69
64698;BME280;51124;53.394;-6.294;2023-04-06T02:22:40;100594.09;;;17.07;9.46
64698;BME280;51124;53.394;-6.294;2023-04-06T02:25:08;100594.21;;;17.14;9.45
64698;BME280;51124;53.394;-6.294;2023-04-06T02:27:36;100592.70;;;19.65;9.51
64698;BME280;51124;53.394;-6.294;2023-04-06T02:30:03;100600.02;;;18.54;10.25
64698;BME280;51124;53.394;-6.294;2023-04-06T02:32:31;100597.42;;;17.82;10.15
64698;BME280;51124;53.394;-6.294;2023-04-06T02:34:59;100597.19;;;19.18;10.11
64698;BME280;51124;53.394;-6.294;2023-04-06T02:37:27;100595.76;;;20.86;10.63
64698;BME280;51124;53.394;-6.294;2023-04-06T02:39:54;100598.91;;;19.66;11.38
64698;BME280;51124;53.394;-6.294;2023-04-06T02:42:22;100598.51;;;20.02;11.55
64698;BME280;51124;53.394;-6.294;2023-04-06T02:44:50;100597.71;;;19.55;11.72
64698;BME280;51124;53.394;-6.294;2023-04-06T02:47:18;100599.28;;;19.39;12.02
64698;BME280;51124;53.394;-6.294;2023-04-06T02:49:45;100596.91;;;19.31;12.02
64698;BME280;51124;53.394;-6.294;2023-04-06T02:52:13;100596.98;;;19.67;12.04
64698;BME280;51124;53.394;-6.294;2023-04-06T02:54:41;100597.98;;;19.76;12.07
64698;BME280;51124;53.394;-6.294;2023-04-06T02:57:09;100604.80;;;19.03;12.33
64698;BME280;51124;53.394;-6.294;2023-04-06T02:59:37;100603.79;;;19.66;11.98
64698;BME280;51124;53.394;-6.294;2023-04-06T03:02:05;100603.48;;;19.21;12.24
64698;BME280;51124;53.394;-6.294;2023-04-06T03:04:33;100605.23;;;19.28;12.30
64698;BME280;51124;53.394;-6.294;2023-04-06T03:07:01;100603.75;;;19.12;12.47
64698;BME280;51124;53.394;-6.294;2023-04-06T03:09:28;100600.97;;;19.60;12.13
64698;BME280;51124;53.394;-6.294;2023-04-06T03:11:56;100599.83;;;20.01;12.06
64698;BME280;51124;53.394;-6.294;2023-04-06T03:14:24;100604.34;;;18.97;12.37
64698;BME280;51124;53.394;-6.294;2023-04-06T03:16:52;100603.75;;;19.49;12.33
64698;BME280;51124;53.394;-6.294;2023-04-06T03:19:19;100600.96;;;19.65;12.18
64698;BME280;51124;53.394;-6.294;2023-04-06T03:21:47;100604.43;;;19.25;12.28
64698;BME280;51124;53.394;-6.294;2023-04-06T03:24:15;100609.50;;;19.54;12.37
64698;BME280;51124;53.394;-6.294;2023-04-06T03:26:42;100610.41;;;17.30;12.36
64698;BME280;51124;53.394;-6.294;2023-04-06T03:29:10;100604.50;;;16.47;11.81
64698;BME280;51124;53.394;-6.294;2023-04-06T03:31:37;100605.54;;;17.03;11.22
64698;BME280;51124;53.394;-6.294;2023-04-06T03:34:04;100605.42;;;15.86;11.00
64698;BME280;51124;53.394;-6.294;2023-04-06T03:36:33;100611.50;;;17.82;10.69
64698;BME280;51124;53.394;-6.294;2023-04-06T03:39:01;100610.51;;;17.29;10.63
64698;BME280;51124;53.394;-6.294;2023-04-06T03:41:28;100609.06;;;15.43;10.69
64698;BME280;51124;53.394;-6.294;2023-04-06T03:43:56;100608.24;;;17.02;10.25
64698;BME280;51124;53.394;-6.294;2023-04-06T03:46:23;100603.95;;;17.37;10.09
64698;BME280;51124;53.394;-6.294;2023-04-06T03:48:50;100603.91;;;17.14;10.09
64698;BME280;51124;53.394;-6.294;2023-04-06T03:51:18;100606.27;;;16.62;9.96
64698;BME280;51124;53.394;-6.294;2023-04-06T03:53:45;100612.10;;;16.62;10.23
64698;BME280;51124;53.394;-6.294;2023-04-06T03:56:12;100612.50;;;16.44;10.13
64698;BME280;51124;53.394;-6.294;2023-04-06T03:58:40;100613.53;;;17.07;9.95
64698;BME280;51124;53.394;-6.294;2023-04-06T04:01:07;100613.67;;;16.53;9.92
64698;BME280;51124;53.394;-6.294;2023-04-06T04:03:34;100611.51;;;16.38;9.79
64698;BME280;51124;53.394;-6.294;2023-04-06T04:06:02;100612.80;;;16.73;9.77
64698;BME280;51124;53.394;-6.294;2023-04-06T04:08:29;100611.41;;;16.59;9.85
64698;BME280;51124;53.394;-6.294;2023-04-06T04:10:56;100609.14;;;15.85;9.80
64698;BME280;51124;53.394;-6.294;2023-04-06T04:13:24;100608.98;;;16.19;9.72
64698;BME280;51124;53.394;-6.294;2023-04-06T04:15:51;100613.16;;;16.00;9.86
64698;BME280;51124;53.394;-6.294;2023-04-06T04:18:18;100612.91;;;16.57;9.62
64698;BME280;51124;53.394;-6.294;2023-04-06T04:20:46;100610.83;;;17.04;9.41
64698;BME280;51124;53.394;-6.294;2023-04-06T04:23:13;100609.51;;;16.66;9.56
64698;BME280;51124;53.394;-6.294;2023-04-06T04:25:40;100604.51;;;16.80;9.58
64698;BME280;51124;53.394;-6.294;2023-04-06T04:28:08;100602.26;;;16.01;9.58
64698;BME280;51124;53.394;-6.294;2023-04-06T04:30:35;100603.97;;;16.38;9.50
64698;BME280;51124;53.394;-6.294;2023-04-06T04:33:02;100600.73;;;16.53;9.50
64698;BME280;51124;53.394;-6.294;2023-04-06T04:35:29;100605.30;;;15.76;9.60
64698;BME280;51124;53.394;-6.294;2023-04-06T04:37:57;100610.25;;;16.08;9.53
64698;BME280;51124;53.394;-6.294;2023-04-06T04:40:24;100612.70;;;16.69;9.36
64698;BME280;51124;53.394;-6.294;2023-04-06T04:42:51;100617.40;;;16.88;9.40
64698;BME280;51124;53.394;-6.294;2023-04-06T04:45:18;100620.60;;;15.87;9.67
64698;BME280;51124;53.394;-6.294;2023-04-06T04:47:46;100624.29;;;15.71;9.69
64698;BME280;51124;53.394;-6.294;2023-04-06T04:50:13;100627.44;;;16.57;9.51
64698;BME280;51124;53.394;-6.294;2023-04-06T04:52:41;100625.82;;;16.47;9.70
64698;BME280;51124;53.394;-6.294;2023-04-06T04:55:08;100629.57;;;15.70;9.56
64698;BME280;51124;53.394;-6.294;2023-04-06T04:57:35;100629.44;;;16.21;9.55
64698;BME280;51124;53.394;-6.294;2023-04-06T05:00:03;100627.53;;;17.33;9.62
64698;BME280;51124;53.394;-6.294;2023-04-06T05:02:31;100630.31;;;16.31;9.54
64698;BME280;51124;53.394;-6.294;2023-04-06T05:04:58;100632.55;;;16.65;9.63
64698;BME280;51124;53.394;-6.294;2023-04-06T05:07:25;100632.84;;;17.31;9.56
64698;BME280;51124;53.394;-6.294;2023-04-06T05:09:53;100633.36;;;16.27;9.55
64698;BME280;51124;53.394;-6.294;2023-04-06T05:12:20;100634.13;;;17.63;9.46
64698;BME280;51124;53.394;-6.294;2023-04-06T05:14:48;100638.75;;;16.97;9.74
64698;BME280;51124;53.394;-6.294;2023-04-06T05:17:15;100642.40;;;15.79;9.89
64698;BME280;51124;53.394;-6.294;2023-04-06T05:19:43;100641.28;;;16.41;9.50
64698;BME280;51124;53.394;-6.294;2023-04-06T05:22:10;100646.65;;;16.69;9.48
64698;BME280;51124;53.394;-6.294;2023-04-06T05:24:37;100649.95;;;16.00;9.60
64698;BME280;51124;53.394;-6.294;2023-04-06T05:27:05;100652.78;;;15.58;9.60
64698;BME280;51124;53.394;-6.294;2023-04-06T05:29:33;100652.66;;;18.46;9.70
64698;BME280;51124;53.394;-6.294;2023-04-06T05:32:00;100656.53;;;19.33;9.92
64698;BME280;51124;53.394;-6.294;2023-04-06T05:34:28;100656.32;;;17.37;10.49
64698;BME280;51124;53.394;-6.294;2023-04-06T05:36:55;100656.01;;;16.08;10.45
64698;BME280;51124;53.394;-6.294;2023-04-06T05:39:23;100659.08;;;20.21;10.95
64698;BME280;51124;53.394;-6.294;2023-04-06T05:41:51;100661.83;;;19.69;11.44
64698;BME280;51124;53.394;-6.294;2023-04-06T05:44:19;100659.94;;;19.09;11.68
64698;BME280;51124;53.394;-6.294;2023-04-06T05:46:46;100662.25;;;19.13;11.79
64698;BME280;51124;53.394;-6.294;2023-04-06T05:49:14;100662.68;;;18.92;11.93
64698;BME280;51124;53.394;-6.294;2023-04-06T05:51:42;100666.58;;;18.73;12.25
64698;BME280;51124;53.394;-6.294;2023-04-06T05:54:10;100664.27;;;18.84;12.03
64698;BME280;51124;53.394;-6.294;2023-04-06T05:56:38;100668.30;;;18.45;12.33
64698;BME280;51124;53.394;-6.294;2023-04-06T05:59:05;100671.47;;;18.90;12.30
64698;BME280;51124;53.394;-6.294;2023-04-06T06:01:34;100675.04;;;19.43;12.13
64698;BME280;51124;53.394;-6.294;2023-04-06T06:04:02;100678.23;;;19.57;12.14
64698;BME280;51124;53.394;-6.294;2023-04-06T06:06:30;100679.94;;;19.31;12.12
64698;BME280;51124;53.394;-6.294;2023-04-06T06:08:58;100682.33;;;18.63;12.34
64698;BME280;51124;53.394;-6.294;2023-04-06T06:11:26;100685.73;;;19.40;12.20
64698;BME280;51124;53.394;-6.294;2023-04-06T06:13:54;100688.53;;;19.15;12.20
64698;BME280;51124;53.394;-6.294;2023-04-06T06:16:22;100689.61;;;19.29;12.18
64698;BME280;51124;53.394;-6.294;2023-04-06T06:18:50;100693.75;;;18.26;12.41
64698;BME280;51124;53.394;-6.294;2023-04-06T06:21:17;100694.70;;;19.03;12.27
64698;BME280;51124;53.394;-6.294;2023-04-06T06:23:45;100699.34;;;18.90;12.28
64698;BME280;51124;53.394;-6.294;2023-04-06T06:26:13;100701.66;;;18.73;12.42
64698;BME280;51124;53.394;-6.294;2023-04-06T06:28:40;100702.15;;;16.94;12.27
64698;BME280;51124;53.394;-6.294;2023-04-06T06:31:08;100703.79;;;16.87;11.71
64698;BME280;51124;53.394;-6.294;2023-04-06T06:33:35;100703.51;;;16.10;11.24
64698;BME280;51124;53.394;-6.294;2023-04-06T06:36:02;100704.26;;;16.05;11.19
64698;BME280;51124;53.394;-6.294;2023-04-06T06:38:30;100704.10;;;16.46;10.88
64698;BME280;51124;53.394;-6.294;2023-04-06T06:40:57;100704.80;;;17.05;10.63
64698;BME280;51124;53.394;-6.294;2023-04-06T06:43:25;100707.91;;;17.32;10.03
64698;BME280;51124;53.394;-6.294;2023-04-06T06:45:52;100705.87;;;18.10;9.64
64698;BME280;51124;53.394;-6.294;2023-04-06T06:48:19;100704.70;;;19.24;9.33
64698;BME280;51124;53.394;-6.294;2023-04-06T06:50:49;100707.22;;;19.00;9.26
64698;BME280;51124;53.394;-6.294;2023-04-06T06:53:16;100709.71;;;18.70;8.97
64698;BME280;51124;53.394;-6.294;2023-04-06T06:55:43;100706.39;;;20.26;8.84
64698;BME280;51124;53.394;-6.294;2023-04-06T06:58:11;100707.09;;;19.43;8.80
64698;BME280;51124;53.394;-6.294;2023-04-06T07:00:38;100710.69;;;19.98;8.68
64698;BME280;51124;53.394;-6.294;2023-04-06T07:03:06;100713.09;;;19.44;8.77
64698;BME280;51124;53.394;-6.294;2023-04-06T07:05:33;100715.65;;;19.64;8.59
64698;BME280;51124;53.394;-6.294;2023-04-06T07:08:01;100714.96;;;20.34;8.47
64698;BME280;51124;53.394;-6.294;2023-04-06T07:10:28;100716.22;;;19.37;8.47
64698;BME280;51124;53.394;-6.294;2023-04-06T07:12:56;100714.91;;;19.38;8.34
64698;BME280;51124;53.394;-6.294;2023-04-06T07:15:23;100718.67;;;19.85;8.38
64698;BME280;51124;53.394;-6.294;2023-04-06T07:17:50;100722.97;;;19.53;8.42
64698;BME280;51124;53.394;-6.294;2023-04-06T07:20:18;100723.01;;;19.63;8.32
64698;BME280;51124;53.394;-6.294;2023-04-06T07:22:45;100726.16;;;19.47;8.28
64698;BME280;51124;53.394;-6.294;2023-04-06T07:25:13;100727.17;;;19.20;8.30
64698;BME280;51124;53.394;-6.294;2023-04-06T07:28:01;100734.05;;;18.88;8.65
64698;BME280;51124;53.394;-6.294;2023-04-06T07:30:36;100738.32;;;19.10;8.58
64698;BME280;51124;53.394;-6.294;2023-04-06T07:33:03;100736.17;;;19.37;8.54
64698;BME280;51124;53.394;-6.294;2023-04-06T07:35:31;100739.30;;;18.72;8.71
64698;BME280;51124;53.394;-6.294;2023-04-06T07:37:58;100742.76;;;18.59;8.63
64698;BME280;51124;53.394;-6.294;2023-04-06T07:40:26;100743.15;;;18.12;8.81
64698;BME280;51124;53.394;-6.294;2023-04-06T07:42:53;100743.88;;;18.45;8.55
64698;BME280;51124;53.394;-6.294;2023-04-06T07:45:20;100746.15;;;18.30;8.68
64698;BME280;51124;53.394;-6.294;2023-04-06T07:47:48;100743.97;;;18.27;8.83
64698;BME280;51124;53.394;-6.294;2023-04-06T07:50:15;100746.87;;;18.41;8.80
64698;BME280;51124;53.394;-6.294;2023-04-06T07:52:43;100748.24;;;17.83;8.69
64698;BME280;51124;53.394;-6.294;2023-04-06T07:55:10;100747.72;;;18.46;8.84
64698;BME280;51124;53.394;-6.294;2023-04-06T07:57:37;100748.51;;;17.87;8.83
64698;BME280;51124;53.394;-6.294;2023-04-06T08:00:06;100753.36;;;17.96;9.20
64698;BME280;51124;53.394;-6.294;2023-04-06T08:02:33;100751.00;;;17.58;9.28
64698;BME280;51124;53.394;-6.294;2023-04-06T08:05:01;100753.75;;;19.00;9.20
64698;BME280;51124;53.394;-6.294;2023-04-06T08:07:29;100754.75;;;18.20;9.28
64698;BME280;51124;53.394;-6.294;2023-04-06T08:09:56;100754.69;;;18.65;9.22
64698;BME280;51124;53.394;-6.294;2023-04-06T08:12:23;100758.62;;;18.14;9.32
64698;BME280;51124;53.394;-6.294;2023-04-06T08:14:51;100760.72;;;18.14;9.22
64698;BME280;51124;53.394;-6.294;2023-04-06T08:17:19;100761.62;;;17.91;9.34
64698;BME280;51124;53.394;-6.294;2023-04-06T08:19:46;100764.65;;;18.77;9.03
64698;BME280;51124;53.394;-6.294;2023-04-06T08:22:14;100769.05;;;18.69;9.25
64698;BME280;51124;53.394;-6.294;2023-04-06T08:24:41;100773.00;;;18.29;9.29
64698;BME280;51124;53.394;-6.294;2023-04-06T08:27:08;100772.74;;;18.32;9.20
64698;BME280;51124;53.394;-6.294;2023-04-06T08:29:36;100772.93;;;18.50;9.14
64698;BME280;51124;53.394;-6.294;2023-04-06T08:32:03;100777.56;;;18.31;9.24
64698;BME280;51124;53.394;-6.294;2023-04-06T08:34:31;100778.39;;;22.61;9.13
64698;BME280;51124;53.394;-6.294;2023-04-06T08:36:59;100785.73;;;20.95;9.93
64698;BME280;51124;53.394;-6.294;2023-04-06T08:39:27;100789.20;;;18.48;10.19
64698;BME280;51124;53.394;-6.294;2023-04-06T08:41:55;100786.98;;;22.12;9.93
64698;BME280;51124;53.394;-6.294;2023-04-06T08:44:23;100794.03;;;22.17;10.72
64698;BME280;51124;53.394;-6.294;2023-04-06T08:46:51;100794.46;;;22.39;11.02
64698;BME280;51124;53.394;-6.294;2023-04-06T08:49:19;100797.73;;;21.73;11.18
64698;BME280;51124;53.394;-6.294;2023-04-06T08:51:47;100798.65;;;22.15;11.26
64698;BME280;51124;53.394;-6.294;2023-04-06T08:54:15;100801.66;;;22.21;11.35
64698;BME280;51124;53.394;-6.294;2023-04-06T08:56:44;100803.30;;;21.44;11.72
64698;BME280;51124;53.394;-6.294;2023-04-06T08:59:13;100803.89;;;21.12;12.04
64698;BME280;51124;53.394;-6.294;2023-04-06T09:01:42;100808.27;;;21.36;11.82
64698;BME280;51124;53.394;-6.294;2023-04-06T09:04:11;100813.02;;;22.22;11.64
64698;BME280;51124;53.394;-6.294;2023-04-06T09:06:40;100822.05;;;21.40;11.94
64698;BME280;51124;53.394;-6.294;2023-04-06T09:09:08;100824.67;;;21.65;12.06
64698;BME280;51124;53.394;-6.294;2023-04-06T09:11:45;100826.16;;;21.61;11.93
64698;BME280;51124;53.394;-6.294;2023-04-06T09:14:03;100828.34;;;21.75;11.94
64698;BME280;51124;53.394;-6.294;2023-04-06T09:16:40;100828.47;;;20.74;12.30
64698;BME280;51124;53.394;-6.294;2023-04-06T09:19:05;100828.93;;;21.94;12.15
64698;BME280;51124;53.394;-6.294;2023-04-06T09:21:33;100835.82;;;21.79;12.00
64698;BME280;51124;53.394;-6.294;2023-04-06T09:24:02;100838.96;;;21.62;12.30
64698;BME280;51124;53.394;-6.294;2023-04-06T09:26:30;100842.51;;;22.25;12.22
64698;BME280;51124;53.394;-6.294;2023-04-06T09:28:59;100850.30;;;21.33;12.14
64698;BME280;51124;53.394;-6.294;2023-04-06T09:31:29;100853.51;;;21.36;12.13
64698;BME280;51124;53.394;-6.294;2023-04-06T09:33:59;100851.50;;;20.82;11.75
64698;BME280;51124;53.394;-6.294;2023-04-06T09:36:32;100856.50;;;19.12;11.77
64698;BME280;51124;53.394;-6.294;2023-04-06T09:39:01;100854.18;;;19.58;11.24
64698;BME280;51124;53.394;-6.294;2023-04-06T09:41:30;100865.09;;;19.22;10.68
64698;BME280;51124;53.394;-6.294;2023-04-06T09:44:07;100871.49;;;20.34;10.47
64698;BME280;51124;53.394;-6.294;2023-04-06T09:46:24;100875.17;;;19.60;10.69
64698;BME280;51124;53.394;-6.294;2023-04-06T09:48:53;100876.65;;;19.14;10.39
64698;BME280;51124;53.394;-6.294;2023-04-06T09:51:20;100875.28;;;19.99;9.85
64698;BME280;51124;53.394;-6.294;2023-04-06T09:53:51;100876.12;;;19.70;9.82
64698;BME280;51124;53.394;-6.294;2023-04-06T09:56:23;100870.57;;;20.31;9.64
64698;BME280;51124;53.394;-6.294;2023-04-06T09:58:54;100874.14;;;19.78;9.92
64698;BME280;51124;53.394;-6.294;2023-04-06T10:01:25;100871.28;;;19.57;8.83
64698;BME280;51124;53.394;-6.294;2023-04-06T10:04:00;100879.46;;;19.19;9.55
64698;BME280;51124;53.394;-6.294;2023-04-06T10:06:23;100882.19;;;19.40;9.32
64698;BME280;51124;53.394;-6.294;2023-04-06T10:08:59;100884.04;;;19.21;9.28
64698;BME280;51124;53.394;-6.294;2023-04-06T10:11:27;100880.03;;;19.53;8.85
64698;BME280;51124;53.394;-6.294;2023-04-06T10:13:55;100876.60;;;19.73;8.95
64698;BME280;51124;53.394;-6.294;2023-04-06T10:16:23;100888.08;;;19.50;9.07
64698;BME280;51124;53.394;-6.294;2023-04-06T10:18:56;100885.39;;;20.77;8.54
64698;BME280;51124;53.394;-6.294;2023-04-06T10:21:26;100888.69;;;20.10;8.61
64698;BME280;51124;53.394;-6.294;2023-04-06T10:23:57;100890.98;;;20.23;8.48
64698;BME280;51124;53.394;-6.294;2023-04-06T10:26:26;100892.49;;;18.47;8.98
64698;BME280;51124;53.394;-6.294;2023-04-06T10:28:54;100897.24;;;19.42;8.75
64698;BME280;51124;53.394;-6.294;2023-04-06T10:31:27;100900.48;;;19.93;8.57
64698;BME280;51124;53.394;-6.294;2023-04-06T10:33:56;100897.91;;;20.74;8.38
64698;BME280;51124;53.394;-6.294;2023-04-06T10:36:25;100905.42;;;18.37;8.41
64698;BME280;51124;53.394;-6.294;2023-04-06T10:38:56;100907.64;;;20.30;8.00
64698;BME280;51124;53.394;-6.294;2023-04-06T10:41:24;100902.59;;;21.65;7.47
64698;BME280;51124;53.394;-6.294;2023-04-06T10:43:58;100905.85;;;21.03;7.70
64698;BME280;51124;53.394;-6.294;2023-04-06T10:46:28;100910.87;;;20.09;7.99
64698;BME280;51124;53.394;-6.294;2023-04-06T10:48:56;100911.47;;;20.17;7.94
64698;BME280;51124;53.394;-6.294;2023-04-06T10:51:27;100913.51;;;20.39;7.97
64698;BME280;51124;53.394;-6.294;2023-04-06T10:53:55;100913.37;;;21.51;7.60
64698;BME280;51124;53.394;-6.294;2023-04-06T10:56:25;100909.36;;;21.53;7.44
64698;BME280;51124;53.394;-6.294;2023-04-06T10:58:54;100910.51;;;20.70;7.58
64698;BME280;51124;53.394;-6.294;2023-04-06T11:01:23;100914.05;;;20.91;7.57
64698;BME280;51124;53.394;-6.294;2023-04-06T11:03:52;100919.27;;;21.11;7.69
64698;BME280;51124;53.394;-6.294;2023-04-06T11:06:20;100918.16;;;21.96;7.43
64698;BME280;51124;53.394;-6.294;2023-04-06T11:08:49;100915.73;;;21.35;7.43
64698;BME280;51124;53.394;-6.294;2023-04-06T11:11:19;100913.88;;;22.54;7.55
64698;BME280;51124;53.394;-6.294;2023-04-06T11:13:48;100923.93;;;21.31;7.67
64698;BME280;51124;53.394;-6.294;2023-04-06T11:16:17;100929.80;;;21.03;7.78
64698;BME280;51124;53.394;-6.294;2023-04-06T11:18:55;100928.23;;;21.71;7.56
64698;BME280;51124;53.394;-6.294;2023-04-06T11:21:12;100927.93;;;21.69;7.47
64698;BME280;51124;53.394;-6.294;2023-04-06T11:23:39;100925.23;;;22.64;7.30
64698;BME280;51124;53.394;-6.294;2023-04-06T11:26:12;100927.57;;;21.99;7.44
64698;BME280;51124;53.394;-6.294;2023-04-06T11:28:50;100929.40;;;22.38;7.36
64698;BME280;51124;53.394;-6.294;2023-04-06T11:31:07;100933.69;;;20.87;7.46
64698;BME280;51124;53.394;-6.294;2023-04-06T11:33:37;100937.52;;;21.91;7.53
64698;BME280;51124;53.394;-6.294;2023-04-06T11:36:05;100936.45;;;21.34;7.47
64698;BME280;51124;53.394;-6.294;2023-04-06T11:38:33;100937.72;;;21.67;7.35
64698;BME280;51124;53.394;-6.294;2023-04-06T11:41:02;100938.45;;;23.57;7.21
64698;BME280;51124;53.394;-6.294;2023-04-06T11:43:30;100938.70;;;25.06;7.41
64698;BME280;51124;53.394;-6.294;2023-04-06T11:46:02;100945.48;;;23.23;8.03
64698;BME280;51124;53.394;-6.294;2023-04-06T11:48:30;100946.12;;;21.70;8.15
64698;BME280;51124;53.394;-6.294;2023-04-06T11:50:58;100947.72;;;25.43;7.95
64698;BME280;51124;53.394;-6.294;2023-04-06T11:53:27;100950.06;;;24.45;8.60
64698;BME280;51124;53.394;-6.294;2023-04-06T11:55:54;100951.34;;;24.22;8.85
64698;BME280;51124;53.394;-6.294;2023-04-06T11:58:22;100954.37;;;25.05;8.78
64698;BME280;51124;53.394;-6.294;2023-04-06T12:00:51;100955.07;;;24.92;9.04
64698;BME280;51124;53.394;-6.294;2023-04-06T12:03:19;100962.80;;;22.82;9.60
64698;BME280;51124;53.394;-6.294;2023-04-06T12:05:47;100964.89;;;22.05;9.76
64698;BME280;51124;53.394;-6.294;2023-04-06T12:08:15;100965.39;;;23.33;9.65
64698;BME280;51124;53.394;-6.294;2023-04-06T12:10:42;100960.46;;;22.79;9.69
64698;BME280;51124;53.394;-6.294;2023-04-06T12:13:10;100963.75;;;22.31;9.69
64698;BME280;51124;53.394;-6.294;2023-04-06T12:15:38;100960.88;;;22.88;9.76
64698;BME280;51124;53.394;-6.294;2023-04-06T12:18:06;100966.17;;;22.78;9.60
64698;BME280;51124;53.394;-6.294;2023-04-06T12:20:34;100963.81;;;23.37;9.33
64698;BME280;51124;53.394;-6.294;2023-04-06T12:23:01;100964.63;;;23.40;9.22
64698;BME280;51124;53.394;-6.294;2023-04-06T12:25:29;100965.37;;;23.19;9.13
64698;BME280;51124;53.394;-6.294;2023-04-06T12:27:57;100961.56;;;22.79;9.20
64698;BME280;51124;53.394;-6.294;2023-04-06T12:30:25;100968.65;;;23.38;9.34
64698;BME280;51124;53.394;-6.294;2023-04-06T12:32:53;100967.88;;;24.78;8.81
64698;BME280;51124;53.394;-6.294;2023-04-06T12:35:21;100965.77;;;25.05;8.59
64698;BME280;51124;53.394;-6.294;2023-04-06T12:37:49;100966.22;;;25.88;8.22
64698;BME280;51124;53.394;-6.294;2023-04-06T12:40:17;100964.40;;;25.49;8.39
64698;BME280;51124;53.394;-6.294;2023-04-06T12:42:44;100966.45;;;22.26;8.67
64698;BME280;51124;53.394;-6.294;2023-04-06T12:45:12;100965.13;;;24.90;8.20
64698;BME280;51124;53.394;-6.294;2023-04-06T12:47:40;100962.97;;;25.25;8.24